Tiline, Kentucky
Current Conditions -  °F | °C
As of 9:35 AM on Friday 24 Oct 2014 (Local Time) from K5M9 Reporting Station
Broken Clouds Broken Clouds  
Wind Chill: 55°   Ceiling: 4800
Heat Index: 55°   Visibility: 10mi
Dew Point: 46°   Wind: 3mph
Humidity: 72%   Direction: 290°WNW
Pressure: 30.14"   Gusts: NA
Location:  37.17°N, 88.24°W
Report Text: K5M9 241435Z AUTO 29003KT 10SM BKN048 13/08 A3014 RMK AO2 T01250076
Loading
Personal Weather Stations






























Interactive Weather Map
Tropical Storm Tracking
New forecast layout! Learn more

10-Day Weather Forecast

Advertisements
Track Severe Weather on mobile